sensor_id;sensor_type;location;lat;lon;timestamp;P1;durP1;ratioP1;P2;durP2;ratioP2
81960;SDS011;71462;50.650;6.888;2023-11-21T00:00:39;13.85;;;6.68;;
81960;SDS011;71462;50.650;6.888;2023-11-21T00:03:07;13.48;;;6.97;;
81960;SDS011;71462;50.650;6.888;2023-11-21T00:05:35;13.02;;;7.35;;
81960;SDS011;71462;50.650;6.888;2023-11-21T00:08:05;13.95;;;7.00;;
81960;SDS011;71462;50.650;6.888;2023-11-21T00:10:33;18.60;;;8.45;;
81960;SDS011;71462;50.650;6.888;2023-11-21T00:13:01;17.50;;;8.05;;
81960;SDS011;71462;50.650;6.888;2023-11-21T00:15:29;20.75;;;9.38;;
81960;SDS011;71462;50.650;6.888;2023-11-21T00:17:59;16.75;;;9.15;;
81960;SDS011;71462;50.650;6.888;2023-11-21T00:20:27;16.73;;;8.75;;
81960;SDS011;71462;50.650;6.888;2023-11-21T00:22:55;17.73;;;8.52;;
81960;SDS011;71462;50.650;6.888;2023-11-21T00:25:22;22.90;;;10.50;;
81960;SDS011;71462;50.650;6.888;2023-11-21T00:27:51;22.65;;;10.02;;
81960;SDS011;71462;50.650;6.888;2023-11-21T00:30:18;24.35;;;10.38;;
81960;SDS011;71462;50.650;6.888;2023-11-21T00:32:48;22.88;;;9.93;;
81960;SDS011;71462;50.650;6.888;2023-11-21T00:35:17;26.60;;;10.95;;
81960;SDS011;71462;50.650;6.888;2023-11-21T00:37:45;30.13;;;10.73;;
81960;SDS011;71462;50.650;6.888;2023-11-21T00:40:16;34.05;;;12.30;;
81960;SDS011;71462;50.650;6.888;2023-11-21T00:42:45;28.67;;;11.93;;
81960;SDS011;71462;50.650;6.888;2023-11-21T00:45:13;26.52;;;11.95;;
81960;SDS011;71462;50.650;6.888;2023-11-21T00:47:41;36.25;;;13.48;;
81960;SDS011;71462;50.650;6.888;2023-11-21T00:50:09;33.70;;;12.85;;
81960;SDS011;71462;50.650;6.888;2023-11-21T00:52:39;31.08;;;15.13;;
81960;SDS011;71462;50.650;6.888;2023-11-21T00:55:07;32.00;;;13.38;;
81960;SDS011;71462;50.650;6.888;2023-11-21T00:57:35;29.45;;;14.40;;
81960;SDS011;71462;50.650;6.888;2023-11-21T01:00:13;37.92;;;13.57;;
81960;SDS011;71462;50.650;6.888;2023-11-21T01:02:43;33.17;;;14.55;;
81960;SDS011;71462;50.650;6.888;2023-11-21T01:05:11;31.45;;;13.48;;
81960;SDS011;71462;50.650;6.888;2023-11-21T01:07:40;30.77;;;13.45;;
81960;SDS011;71462;50.650;6.888;2023-11-21T01:10:14;27.05;;;12.45;;
81960;SDS011;71462;50.650;6.888;2023-11-21T01:12:43;23.45;;;11.18;;
81960;SDS011;71462;50.650;6.888;2023-11-21T01:15:11;24.85;;;12.07;;
81960;SDS011;71462;50.650;6.888;2023-11-21T01:17:39;27.73;;;11.75;;
81960;SDS011;71462;50.650;6.888;2023-11-21T01:20:08;25.25;;;12.35;;
81960;SDS011;71462;50.650;6.888;2023-11-21T01:22:41;24.70;;;11.45;;
81960;SDS011;71462;50.650;6.888;2023-11-21T01:25:09;25.02;;;11.95;;
81960;SDS011;71462;50.650;6.888;2023-11-21T01:27:37;26.95;;;11.73;;
81960;SDS011;71462;50.650;6.888;2023-11-21T01:30:05;33.25;;;13.63;;
81960;SDS011;71462;50.650;6.888;2023-11-21T01:32:35;30.55;;;12.48;;
81960;SDS011;71462;50.650;6.888;2023-11-21T01:35:03;33.03;;;13.90;;
81960;SDS011;71462;50.650;6.888;2023-11-21T01:37:32;31.13;;;12.63;;
81960;SDS011;71462;50.650;6.888;2023-11-21T01:40:01;35.45;;;14.18;;
81960;SDS011;71462;50.650;6.888;2023-11-21T01:42:34;33.40;;;13.68;;
81960;SDS011;71462;50.650;6.888;2023-11-21T01:45:01;34.05;;;13.45;;
81960;SDS011;71462;50.650;6.888;2023-11-21T01:47:31;28.05;;;12.73;;
81960;SDS011;71462;50.650;6.888;2023-11-21T01:50:00;29.17;;;12.88;;
81960;SDS011;71462;50.650;6.888;2023-11-21T01:52:30;29.02;;;11.70;;
81960;SDS011;71462;50.650;6.888;2023-11-21T01:54:58;28.65;;;11.95;;
81960;SDS011;71462;50.650;6.888;2023-11-21T01:57:28;24.63;;;12.05;;
81960;SDS011;71462;50.650;6.888;2023-11-21T01:59:56;19.80;;;10.52;;
81960;SDS011;71462;50.650;6.888;2023-11-21T02:02:30;25.85;;;11.75;;
81960;SDS011;71462;50.650;6.888;2023-11-21T02:04:58;27.40;;;12.60;;
81960;SDS011;71462;50.650;6.888;2023-11-21T02:07:26;23.63;;;9.63;;
81960;SDS011;71462;50.650;6.888;2023-11-21T02:09:54;25.58;;;11.02;;
81960;SDS011;71462;50.650;6.888;2023-11-21T02:12:25;31.20;;;11.43;;
81960;SDS011;71462;50.650;6.888;2023-11-21T02:14:54;24.80;;;11.68;;
81960;SDS011;71462;50.650;6.888;2023-11-21T02:17:22;21.40;;;10.23;;
81960;SDS011;71462;50.650;6.888;2023-11-21T02:19:50;25.92;;;10.95;;
81960;SDS011;71462;50.650;6.888;2023-11-21T02:22:18;24.05;;;11.10;;
81960;SDS011;71462;50.650;6.888;2023-11-21T02:24:48;30.15;;;11.32;;
81960;SDS011;71462;50.650;6.888;2023-11-21T02:27:16;26.13;;;10.95;;
81960;SDS011;71462;50.650;6.888;2023-11-21T02:29:48;25.80;;;11.43;;
81960;SDS011;71462;50.650;6.888;2023-11-21T02:32:16;33.55;;;13.25;;
81960;SDS011;71462;50.650;6.888;2023-11-21T02:34:45;30.83;;;12.63;;
81960;SDS011;71462;50.650;6.888;2023-11-21T02:37:13;34.38;;;12.40;;
81960;SDS011;71462;50.650;6.888;2023-11-21T02:39:42;30.33;;;12.40;;
81960;SDS011;71462;50.650;6.888;2023-11-21T02:42:12;32.17;;;13.38;;
81960;SDS011;71462;50.650;6.888;2023-11-21T02:44:40;29.55;;;13.13;;
81960;SDS011;71462;50.650;6.888;2023-11-21T02:47:09;29.42;;;14.02;;
81960;SDS011;71462;50.650;6.888;2023-11-21T02:49:37;42.05;;;14.75;;
81960;SDS011;71462;50.650;6.888;2023-11-21T02:52:06;40.08;;;16.45;;
81960;SDS011;71462;50.650;6.888;2023-11-21T02:54:35;39.67;;;15.55;;
81960;SDS011;71462;50.650;6.888;2023-11-21T02:57:03;32.58;;;13.30;;
81960;SDS011;71462;50.650;6.888;2023-11-21T02:59:33;32.50;;;14.52;;
81960;SDS011;71462;50.650;6.888;2023-11-21T03:02:01;43.70;;;16.90;;
81960;SDS011;71462;50.650;6.888;2023-11-21T03:04:29;39.67;;;17.27;;
81960;SDS011;71462;50.650;6.888;2023-11-21T03:06:58;29.75;;;14.73;;
81960;SDS011;71462;50.650;6.888;2023-11-21T03:09:26;33.30;;;14.40;;
81960;SDS011;71462;50.650;6.888;2023-11-21T03:11:54;32.42;;;13.80;;
81960;SDS011;71462;50.650;6.888;2023-11-21T03:14:22;33.75;;;15.88;;
81960;SDS011;71462;50.650;6.888;2023-11-21T03:16:52;34.72;;;14.60;;
81960;SDS011;71462;50.650;6.888;2023-11-21T03:19:20;31.83;;;14.95;;
81960;SDS011;71462;50.650;6.888;2023-11-21T03:21:47;32.85;;;14.93;;
81960;SDS011;71462;50.650;6.888;2023-11-21T03:24:15;28.77;;;13.65;;
81960;SDS011;71462;50.650;6.888;2023-11-21T03:26:46;27.60;;;14.57;;
81960;SDS011;71462;50.650;6.888;2023-11-21T03:29:13;28.67;;;14.02;;
81960;SDS011;71462;50.650;6.888;2023-11-21T03:31:44;30.05;;;14.07;;
81960;SDS011;71462;50.650;6.888;2023-11-21T03:34:15;32.47;;;13.98;;
81960;SDS011;71462;50.650;6.888;2023-11-21T03:36:50;33.20;;;14.68;;
81960;SDS011;71462;50.650;6.888;2023-11-21T03:39:24;28.98;;;13.68;;
81960;SDS011;71462;50.650;6.888;2023-11-21T03:41:51;29.10;;;13.15;;
81960;SDS011;71462;50.650;6.888;2023-11-21T03:44:19;28.58;;;14.30;;
81960;SDS011;71462;50.650;6.888;2023-11-21T03:46:48;29.08;;;13.75;;
81960;SDS011;71462;50.650;6.888;2023-11-21T03:49:17;27.98;;;12.77;;
81960;SDS011;71462;50.650;6.888;2023-11-21T03:51:45;30.73;;;13.63;;
81960;SDS011;71462;50.650;6.888;2023-11-21T03:54:12;29.10;;;14.00;;
81960;SDS011;71462;50.650;6.888;2023-11-21T03:56:40;24.20;;;12.18;;
81960;SDS011;71462;50.650;6.888;2023-11-21T03:59:08;25.20;;;12.13;;
81960;SDS011;71462;50.650;6.888;2023-11-21T04:01:36;27.10;;;12.55;;
81960;SDS011;71462;50.650;6.888;2023-11-21T04:04:04;25.10;;;11.50;;
81960;SDS011;71462;50.650;6.888;2023-11-21T04:06:33;21.33;;;11.00;;
81960;SDS011;71462;50.650;6.888;2023-11-21T04:09:02;20.13;;;10.40;;
81960;SDS011;71462;50.650;6.888;2023-11-21T04:11:30;26.60;;;11.60;;
81960;SDS011;71462;50.650;6.888;2023-11-21T04:13:58;26.40;;;9.93;;
81960;SDS011;71462;50.650;6.888;2023-11-21T04:16:26;25.83;;;11.23;;
81960;SDS011;71462;50.650;6.888;2023-11-21T04:18:54;21.65;;;11.02;;
81960;SDS011;71462;50.650;6.888;2023-11-21T04:21:21;24.73;;;10.23;;
81960;SDS011;71462;50.650;6.888;2023-11-21T04:23:51;16.70;;;9.20;;
81960;SDS011;71462;50.650;6.888;2023-11-21T04:26:19;18.35;;;9.98;;
81960;SDS011;71462;50.650;6.888;2023-11-21T04:28:47;21.98;;;9.80;;
81960;SDS011;71462;50.650;6.888;2023-11-21T04:31:14;17.55;;;9.43;;
81960;SDS011;71462;50.650;6.888;2023-11-21T04:33:42;17.95;;;8.57;;
81960;SDS011;71462;50.650;6.888;2023-11-21T04:36:11;20.50;;;9.20;;
81960;SDS011;71462;50.650;6.888;2023-11-21T04:38:38;20.92;;;9.40;;
81960;SDS011;71462;50.650;6.888;2023-11-21T04:41:10;19.20;;;8.75;;
81960;SDS011;71462;50.650;6.888;2023-11-21T04:43:39;19.40;;;9.18;;
81960;SDS011;71462;50.650;6.888;2023-11-21T04:46:07;19.73;;;8.13;;
81960;SDS011;71462;50.650;6.888;2023-11-21T04:48:36;22.13;;;8.95;;
81960;SDS011;71462;50.650;6.888;2023-11-21T04:51:04;16.67;;;8.15;;
81960;SDS011;71462;50.650;6.888;2023-11-21T04:53:32;18.88;;;9.02;;
81960;SDS011;71462;50.650;6.888;2023-11-21T04:56:00;17.45;;;8.43;;
81960;SDS011;71462;50.650;6.888;2023-11-21T04:58:31;20.77;;;8.18;;
81960;SDS011;71462;50.650;6.888;2023-11-21T05:00:59;19.13;;;8.85;;
81960;SDS011;71462;50.650;6.888;2023-11-21T05:03:30;22.90;;;10.10;;
81960;SDS011;71462;50.650;6.888;2023-11-21T05:05:59;20.60;;;9.18;;
81960;SDS011;71462;50.650;6.888;2023-11-21T05:08:28;21.05;;;9.30;;
81960;SDS011;71462;50.650;6.888;2023-11-21T05:10:55;19.60;;;9.45;;
81960;SDS011;71462;50.650;6.888;2023-11-21T05:13:23;21.75;;;10.15;;
81960;SDS011;71462;50.650;6.888;2023-11-21T05:15:55;23.48;;;10.10;;
81960;SDS011;71462;50.650;6.888;2023-11-21T05:18:24;21.65;;;10.57;;
81960;SDS011;71462;50.650;6.888;2023-11-21T05:20:53;24.70;;;12.15;;
81960;SDS011;71462;50.650;6.888;2023-11-21T05:23:21;22.85;;;12.45;;
81960;SDS011;71462;50.650;6.888;2023-11-21T05:25:49;24.60;;;12.10;;
81960;SDS011;71462;50.650;6.888;2023-11-21T05:28:17;22.13;;;11.55;;
81960;SDS011;71462;50.650;6.888;2023-11-21T05:30:45;25.55;;;12.70;;
81960;SDS011;71462;50.650;6.888;2023-11-21T05:33:14;28.70;;;14.63;;
81960;SDS011;71462;50.650;6.888;2023-11-21T05:35:42;35.35;;;18.73;;
81960;SDS011;71462;50.650;6.888;2023-11-21T05:38:11;37.08;;;17.33;;
81960;SDS011;71462;50.650;6.888;2023-11-21T05:40:39;33.38;;;16.08;;
81960;SDS011;71462;50.650;6.888;2023-11-21T05:43:06;34.83;;;17.10;;
81960;SDS011;71462;50.650;6.888;2023-11-21T05:45:34;30.00;;;15.85;;
81960;SDS011;71462;50.650;6.888;2023-11-21T05:48:02;33.38;;;14.98;;
81960;SDS011;71462;50.650;6.888;2023-11-21T05:50:31;31.08;;;15.45;;
81960;SDS011;71462;50.650;6.888;2023-11-21T05:52:59;26.70;;;12.38;;
81960;SDS011;71462;50.650;6.888;2023-11-21T05:55:27;29.38;;;13.10;;
81960;SDS011;71462;50.650;6.888;2023-11-21T05:57:55;32.38;;;14.95;;
81960;SDS011;71462;50.650;6.888;2023-11-21T06:00:24;26.65;;;12.93;;
81960;SDS011;71462;50.650;6.888;2023-11-21T06:02:54;36.00;;;18.25;;
81960;SDS011;71462;50.650;6.888;2023-11-21T06:05:25;31.23;;;15.25;;
81960;SDS011;71462;50.650;6.888;2023-11-21T06:07:56;33.42;;;15.18;;
81960;SDS011;71462;50.650;6.888;2023-11-21T06:10:26;27.92;;;13.27;;
81960;SDS011;71462;50.650;6.888;2023-11-21T06:12:57;25.75;;;12.73;;
81960;SDS011;71462;50.650;6.888;2023-11-21T06:15:29;26.50;;;12.25;;
81960;SDS011;71462;50.650;6.888;2023-11-21T06:18:15;26.20;;;13.02;;
81960;SDS011;71462;50.650;6.888;2023-11-21T06:20:51;31.75;;;14.18;;
81960;SDS011;71462;50.650;6.888;2023-11-21T06:23:20;28.58;;;12.95;;
81960;SDS011;71462;50.650;6.888;2023-11-21T06:25:48;27.35;;;13.27;;
81960;SDS011;71462;50.650;6.888;2023-11-21T06:28:16;31.02;;;13.15;;
81960;SDS011;71462;50.650;6.888;2023-11-21T06:30:44;22.67;;;11.75;;
81960;SDS011;71462;50.650;6.888;2023-11-21T06:33:12;28.35;;;12.70;;
81960;SDS011;71462;50.650;6.888;2023-11-21T06:35:40;27.38;;;12.65;;
81960;SDS011;71462;50.650;6.888;2023-11-21T06:38:15;30.90;;;13.32;;
81960;SDS011;71462;50.650;6.888;2023-11-21T06:40:48;31.23;;;13.32;;
81960;SDS011;71462;50.650;6.888;2023-11-21T06:45:48;28.85;;;12.38;;
81960;SDS011;71462;50.650;6.888;2023-11-21T06:48:30;27.00;;;11.18;;
81960;SDS011;71462;50.650;6.888;2023-11-21T06:50:58;22.42;;;10.90;;
81960;SDS011;71462;50.650;6.888;2023-11-21T06:53:36;24.95;;;11.13;;
81960;SDS011;71462;50.650;6.888;2023-11-21T06:56:14;24.83;;;11.98;;
81960;SDS011;71462;50.650;6.888;2023-11-21T06:59:11;26.63;;;12.18;;
81960;SDS011;71462;50.650;6.888;2023-11-21T07:01:39;29.17;;;13.45;;
81960;SDS011;71462;50.650;6.888;2023-11-21T07:04:38;26.42;;;12.30;;
81960;SDS011;71462;50.650;6.888;2023-11-21T07:07:06;28.90;;;12.30;;
81960;SDS011;71462;50.650;6.888;2023-11-21T07:09:40;25.17;;;12.82;;
81960;SDS011;71462;50.650;6.888;2023-11-21T07:12:32;19.90;;;10.48;;
81960;SDS011;71462;50.650;6.888;2023-11-21T07:15:01;26.02;;;11.50;;
81960;SDS011;71462;50.650;6.888;2023-11-21T07:17:32;25.20;;;12.18;;
81960;SDS011;71462;50.650;6.888;2023-11-21T07:20:06;24.02;;;10.80;;
81960;SDS011;71462;50.650;6.888;2023-11-21T07:22:38;29.10;;;11.45;;
81960;SDS011;71462;50.650;6.888;2023-11-21T07:25:08;31.45;;;13.65;;
81960;SDS011;71462;50.650;6.888;2023-11-21T07:27:38;25.17;;;11.20;;
81960;SDS011;71462;50.650;6.888;2023-11-21T07:30:12;30.52;;;13.00;;
81960;SDS011;71462;50.650;6.888;2023-11-21T07:32:44;26.67;;;11.82;;
81960;SDS011;71462;50.650;6.888;2023-11-21T07:35:14;31.02;;;13.68;;
81960;SDS011;71462;50.650;6.888;2023-11-21T07:41:00;27.50;;;12.23;;
81960;SDS011;71462;50.650;6.888;2023-11-21T07:46:49;29.25;;;11.40;;
81960;SDS011;71462;50.650;6.888;2023-11-21T07:49:17;30.30;;;13.68;;
81960;SDS011;71462;50.650;6.888;2023-11-21T07:51:47;25.27;;;11.88;;
81960;SDS011;71462;50.650;6.888;2023-11-21T07:54:16;29.67;;;11.80;;
81960;SDS011;71462;50.650;6.888;2023-11-21T07:56:45;34.25;;;12.93;;
81960;SDS011;71462;50.650;6.888;2023-11-21T07:59:15;28.85;;;12.95;;
81960;SDS011;71462;50.650;6.888;2023-11-21T08:01:44;29.52;;;11.57;;
81960;SDS011;71462;50.650;6.888;2023-11-21T08:04:16;28.98;;;12.45;;
81960;SDS011;71462;50.650;6.888;2023-11-21T08:06:45;25.52;;;12.73;;
81960;SDS011;71462;50.650;6.888;2023-11-21T08:09:13;27.55;;;12.48;;
81960;SDS011;71462;50.650;6.888;2023-11-21T08:11:41;55.30;;;23.08;;
81960;SDS011;71462;50.650;6.888;2023-11-21T08:14:11;42.25;;;16.95;;
81960;SDS011;71462;50.650;6.888;2023-11-21T08:16:41;29.63;;;11.27;;
81960;SDS011;71462;50.650;6.888;2023-11-21T08:21:50;22.40;;;10.55;;
81960;SDS011;71462;50.650;6.888;2023-11-21T08:24:23;28.38;;;10.50;;
81960;SDS011;71462;50.650;6.888;2023-11-21T08:26:52;23.17;;;10.52;;
81960;SDS011;71462;50.650;6.888;2023-11-21T08:29:20;27.35;;;11.10;;
81960;SDS011;71462;50.650;6.888;2023-11-21T08:31:57;27.05;;;10.98;;
81960;SDS011;71462;50.650;6.888;2023-11-21T08:34:26;23.80;;;11.30;;
81960;SDS011;71462;50.650;6.888;2023-11-21T08:36:54;27.05;;;11.80;;
81960;SDS011;71462;50.650;6.888;2023-11-21T08:39:23;27.25;;;12.35;;
81960;SDS011;71462;50.650;6.888;2023-11-21T08:41:58;25.95;;;11.82;;
81960;SDS011;71462;50.650;6.888;2023-11-21T08:44:26;29.38;;;12.68;;
81960;SDS011;71462;50.650;6.888;2023-11-21T08:46:59;31.27;;;13.82;;
81960;SDS011;71462;50.650;6.888;2023-11-21T08:52:18;27.55;;;11.13;;
81960;SDS011;71462;50.650;6.888;2023-11-21T08:54:53;30.58;;;12.48;;
81960;SDS011;71462;50.650;6.888;2023-11-21T08:57:29;29.17;;;11.18;;
81960;SDS011;71462;50.650;6.888;2023-11-21T08:59:57;27.35;;;11.35;;
81960;SDS011;71462;50.650;6.888;2023-11-21T09:02:26;28.95;;;11.55;;
81960;SDS011;71462;50.650;6.888;2023-11-21T09:04:56;29.67;;;12.45;;
81960;SDS011;71462;50.650;6.888;2023-11-21T09:07:25;25.23;;;11.07;;
81960;SDS011;71462;50.650;6.888;2023-11-21T09:09:53;24.83;;;11.32;;
81960;SDS011;71462;50.650;6.888;2023-11-21T09:12:21;25.17;;;11.77;;
81960;SDS011;71462;50.650;6.888;2023-11-21T09:14:51;44.63;;;18.63;;
81960;SDS011;71462;50.650;6.888;2023-11-21T09:17:18;25.75;;;11.82;;
81960;SDS011;71462;50.650;6.888;2023-11-21T09:19:48;29.58;;;12.68;;
81960;SDS011;71462;50.650;6.888;2023-11-21T09:22:18;30.60;;;12.23;;
81960;SDS011;71462;50.650;6.888;2023-11-21T09:24:46;28.50;;;13.38;;
81960;SDS011;71462;50.650;6.888;2023-11-21T09:27:14;31.95;;;13.35;;
81960;SDS011;71462;50.650;6.888;2023-11-21T09:29:43;33.25;;;12.98;;
81960;SDS011;71462;50.650;6.888;2023-11-21T09:32:11;28.75;;;12.52;;
81960;SDS011;71462;50.650;6.888;2023-11-21T09:34:40;23.13;;;11.32;;
81960;SDS011;71462;50.650;6.888;2023-11-21T09:37:10;29.80;;;12.32;;
81960;SDS011;71462;50.650;6.888;2023-11-21T09:39:41;28.77;;;12.52;;
81960;SDS011;71462;50.650;6.888;2023-11-21T09:42:11;28.83;;;12.25;;
81960;SDS011;71462;50.650;6.888;2023-11-21T09:44:45;24.75;;;11.75;;
81960;SDS011;71462;50.650;6.888;2023-11-21T09:47:17;25.95;;;12.43;;
81960;SDS011;71462;50.650;6.888;2023-11-21T09:49:47;26.48;;;11.68;;
81960;SDS011;71462;50.650;6.888;2023-11-21T09:52:26;30.10;;;12.88;;
81960;SDS011;71462;50.650;6.888;2023-11-21T09:55:08;31.48;;;12.57;;
81960;SDS011;71462;50.650;6.888;2023-11-21T09:57:45;29.40;;;13.65;;
81960;SDS011;71462;50.650;6.888;2023-11-21T10:00:22;29.27;;;12.77;;
81960;SDS011;71462;50.650;6.888;2023-11-21T10:02:54;28.80;;;12.77;;
81960;SDS011;71462;50.650;6.888;2023-11-21T10:05:48;30.35;;;13.52;;
81960;SDS011;71462;50.650;6.888;2023-11-21T10:08:31;27.77;;;13.00;;
81960;SDS011;71462;50.650;6.888;2023-11-21T10:11:21;33.17;;;14.55;;
81960;SDS011;71462;50.650;6.888;2023-11-21T10:13:52;34.22;;;13.20;;
81960;SDS011;71462;50.650;6.888;2023-11-21T10:16:23;31.70;;;14.80;;
81960;SDS011;71462;50.650;6.888;2023-11-21T10:18:54;32.58;;;13.77;;
81960;SDS011;71462;50.650;6.888;2023-11-21T10:21:37;33.97;;;14.68;;
81960;SDS011;71462;50.650;6.888;2023-11-21T10:24:10;25.35;;;12.70;;
81960;SDS011;71462;50.650;6.888;2023-11-21T10:26:38;24.50;;;12.23;;
81960;SDS011;71462;50.650;6.888;2023-11-21T10:29:18;30.50;;;12.80;;
81960;SDS011;71462;50.650;6.888;2023-11-21T10:31:48;27.20;;;11.88;;
81960;SDS011;71462;50.650;6.888;2023-11-21T10:34:18;25.58;;;11.35;;
81960;SDS011;71462;50.650;6.888;2023-11-21T10:36:46;32.17;;;11.52;;
81960;SDS011;71462;50.650;6.888;2023-11-21T10:39:17;28.60;;;12.50;;
81960;SDS011;71462;50.650;6.888;2023-11-21T10:41:57;31.23;;;12.93;;
81960;SDS011;71462;50.650;6.888;2023-11-21T10:44:25;26.30;;;12.30;;
81960;SDS011;71462;50.650;6.888;2023-11-21T10:46:55;31.10;;;13.20;;
81960;SDS011;71462;50.650;6.888;2023-11-21T10:49:27;23.92;;;11.65;;
81960;SDS011;71462;50.650;6.888;2023-11-21T10:51:55;28.00;;;12.43;;
81960;SDS011;71462;50.650;6.888;2023-11-21T10:54:26;29.75;;;13.02;;
81960;SDS011;71462;50.650;6.888;2023-11-21T10:57:18;32.85;;;12.98;;
81960;SDS011;71462;50.650;6.888;2023-11-21T11:00:17;29.70;;;13.73;;
81960;SDS011;71462;50.650;6.888;2023-11-21T11:03:01;27.63;;;12.80;;
81960;SDS011;71462;50.650;6.888;2023-11-21T11:05:43;34.33;;;15.60;;
81960;SDS011;71462;50.650;6.888;2023-11-21T11:08:23;27.02;;;12.90;;
81960;SDS011;71462;50.650;6.888;2023-11-21T11:10:55;26.00;;;11.70;;
81960;SDS011;71462;50.650;6.888;2023-11-21T11:13:26;29.58;;;12.57;;
81960;SDS011;71462;50.650;6.888;2023-11-21T11:16:06;30.77;;;13.63;;
81960;SDS011;71462;50.650;6.888;2023-11-21T11:18:37;30.60;;;13.93;;
81960;SDS011;71462;50.650;6.888;2023-11-21T11:21:07;27.50;;;13.27;;
81960;SDS011;71462;50.650;6.888;2023-11-21T11:23:55;38.17;;;16.85;;
81960;SDS011;71462;50.650;6.888;2023-11-21T11:26:45;29.83;;;13.82;;
81960;SDS011;71462;50.650;6.888;2023-11-21T11:29:24;33.67;;;14.65;;
81960;SDS011;71462;50.650;6.888;2023-11-21T11:32:52;29.77;;;13.55;;
81960;SDS011;71462;50.650;6.888;2023-11-21T11:35:30;42.10;;;19.73;;
81960;SDS011;71462;50.650;6.888;2023-11-21T11:38:04;35.08;;;16.65;;
81960;SDS011;71462;50.650;6.888;2023-11-21T11:40:40;29.90;;;13.52;;
81960;SDS011;71462;50.650;6.888;2023-11-21T11:43:11;44.42;;;20.00;;
81960;SDS011;71462;50.650;6.888;2023-11-21T11:45:39;40.42;;;17.25;;
81960;SDS011;71462;50.650;6.888;2023-11-21T11:48:11;35.45;;;16.33;;
81960;SDS011;71462;50.650;6.888;2023-11-21T11:50:42;33.25;;;14.68;;
81960;SDS011;71462;50.650;6.888;2023-11-21T11:53:25;27.85;;;11.90;;
81960;SDS011;71462;50.650;6.888;2023-11-21T11:55:57;26.70;;;10.52;;
81960;SDS011;71462;50.650;6.888;2023-11-21T11:59:02;30.23;;;13.07;;
81960;SDS011;71462;50.650;6.888;2023-11-21T12:01:36;31.00;;;13.30;;
81960;SDS011;71462;50.650;6.888;2023-11-21T12:04:24;32.85;;;13.20;;
81960;SDS011;71462;50.650;6.888;2023-11-21T12:07:01;29.45;;;12.73;;
81960;SDS011;71462;50.650;6.888;2023-11-21T12:09:33;36.55;;;14.52;;
81960;SDS011;71462;50.650;6.888;2023-11-21T12:12:08;29.30;;;11.27;;
81960;SDS011;71462;50.650;6.888;2023-11-21T12:14:37;28.42;;;11.90;;
81960;SDS011;71462;50.650;6.888;2023-11-21T12:17:06;34.55;;;14.40;;
81960;SDS011;71462;50.650;6.888;2023-11-21T12:19:35;24.67;;;11.25;;
81960;SDS011;71462;50.650;6.888;2023-11-21T12:22:04;28.98;;;13.35;;
81960;SDS011;71462;50.650;6.888;2023-11-21T12:24:34;25.98;;;11.48;;
81960;SDS011;71462;50.650;6.888;2023-11-21T12:27:03;23.55;;;10.93;;
81960;SDS011;71462;50.650;6.888;2023-11-21T12:29:33;29.02;;;12.05;;
81960;SDS011;71462;50.650;6.888;2023-11-21T12:32:07;30.63;;;13.05;;
81960;SDS011;71462;50.650;6.888;2023-11-21T12:34:39;30.63;;;14.27;;
81960;SDS011;71462;50.650;6.888;2023-11-21T12:37:10;29.63;;;10.70;;
81960;SDS011;71462;50.650;6.888;2023-11-21T12:39:39;26.85;;;10.55;;
81960;SDS011;71462;50.650;6.888;2023-11-21T12:42:07;34.75;;;12.90;;
81960;SDS011;71462;50.650;6.888;2023-11-21T12:44:38;23.00;;;9.60;;
81960;SDS011;71462;50.650;6.888;2023-11-21T12:47:09;22.13;;;10.38;;
81960;SDS011;71462;50.650;6.888;2023-11-21T12:49:51;24.83;;;10.10;;
81960;SDS011;71462;50.650;6.888;2023-11-21T12:52:23;24.40;;;9.80;;
81960;SDS011;71462;50.650;6.888;2023-11-21T12:55:11;25.15;;;10.98;;
81960;SDS011;71462;50.650;6.888;2023-11-21T12:57:42;30.05;;;10.50;;
81960;SDS011;71462;50.650;6.888;2023-11-21T13:00:12;26.92;;;9.90;;
81960;SDS011;71462;50.650;6.888;2023-11-21T13:02:55;27.52;;;10.18;;
81960;SDS011;71462;50.650;6.888;2023-11-21T13:05:28;28.45;;;12.02;;
81960;SDS011;71462;50.650;6.888;2023-11-21T13:08:14;34.08;;;13.70;;
81960;SDS011;71462;50.650;6.888;2023-11-21T13:10:47;35.35;;;13.70;;
81960;SDS011;71462;50.650;6.888;2023-11-21T13:13:17;30.02;;;13.35;;
81960;SDS011;71462;50.650;6.888;2023-11-21T13:15:50;27.17;;;10.90;;
81960;SDS011;71462;50.650;6.888;2023-11-21T13:18:24;26.30;;;10.82;;
81960;SDS011;71462;50.650;6.888;2023-11-21T13:20:52;20.08;;;9.95;;
81960;SDS011;71462;50.650;6.888;2023-11-21T13:23:24;28.15;;;10.70;;
81960;SDS011;71462;50.650;6.888;2023-11-21T13:25:52;23.27;;;9.75;;
81960;SDS011;71462;50.650;6.888;2023-11-21T13:28:30;30.83;;;10.43;;
81960;SDS011;71462;50.650;6.888;2023-11-21T13:31:00;26.00;;;11.50;;
81960;SDS011;71462;50.650;6.888;2023-11-21T13:33:37;20.60;;;9.48;;
81960;SDS011;71462;50.650;6.888;2023-11-21T13:36:07;26.23;;;9.88;;
81960;SDS011;71462;50.650;6.888;2023-11-21T13:38:37;26.92;;;9.93;;
81960;SDS011;71462;50.650;6.888;2023-11-21T13:41:09;25.00;;;9.77;;
81960;SDS011;71462;50.650;6.888;2023-11-21T13:43:39;24.83;;;8.88;;
81960;SDS011;71462;50.650;6.888;2023-11-21T13:46:11;22.92;;;8.75;;
81960;SDS011;71462;50.650;6.888;2023-11-21T13:48:45;27.17;;;9.27;;
81960;SDS011;71462;50.650;6.888;2023-11-21T13:51:20;22.02;;;8.73;;
81960;SDS011;71462;50.650;6.888;2023-11-21T13:53:55;23.65;;;10.35;;
81960;SDS011;71462;50.650;6.888;2023-11-21T13:56:23;24.65;;;10.80;;
81960;SDS011;71462;50.650;6.888;2023-11-21T13:58:52;32.08;;;11.25;;
81960;SDS011;71462;50.650;6.888;2023-11-21T14:01:22;27.38;;;11.48;;
81960;SDS011;71462;50.650;6.888;2023-11-21T14:04:12;34.70;;;12.43;;
81960;SDS011;71462;50.650;6.888;2023-11-21T14:06:46;31.35;;;11.13;;
81960;SDS011;71462;50.650;6.888;2023-11-21T14:09:16;30.83;;;10.75;;
81960;SDS011;71462;50.650;6.888;2023-11-21T14:11:49;31.30;;;11.60;;
81960;SDS011;71462;50.650;6.888;2023-11-21T14:14:22;30.63;;;12.13;;
81960;SDS011;71462;50.650;6.888;2023-11-21T14:16:53;32.42;;;11.95;;
81960;SDS011;71462;50.650;6.888;2023-11-21T14:19:23;34.30;;;12.57;;
81960;SDS011;71462;50.650;6.888;2023-11-21T14:21:54;37.78;;;12.93;;
81960;SDS011;71462;50.650;6.888;2023-11-21T14:24:22;30.60;;;11.93;;
81960;SDS011;71462;50.650;6.888;2023-11-21T14:26:50;34.35;;;12.85;;
81960;SDS011;71462;50.650;6.888;2023-11-21T14:29:19;28.92;;;11.43;;
81960;SDS011;71462;50.650;6.888;2023-11-21T14:31:48;31.85;;;11.45;;
81960;SDS011;71462;50.650;6.888;2023-11-21T14:34:19;27.20;;;11.15;;
81960;SDS011;71462;50.650;6.888;2023-11-21T14:36:50;30.05;;;13.50;;
81960;SDS011;71462;50.650;6.888;2023-11-21T14:39:17;32.22;;;12.02;;
81960;SDS011;71462;50.650;6.888;2023-11-21T14:41:50;29.75;;;11.27;;
81960;SDS011;71462;50.650;6.888;2023-11-21T14:44:19;27.45;;;11.60;;
81960;SDS011;71462;50.650;6.888;2023-11-21T14:46:50;31.63;;;11.13;;
81960;SDS011;71462;50.650;6.888;2023-11-21T14:49:19;36.90;;;12.50;;
81960;SDS011;71462;50.650;6.888;2023-11-21T14:51:49;31.55;;;11.20;;
81960;SDS011;71462;50.650;6.888;2023-11-21T14:54:27;38.15;;;16.23;;
81960;SDS011;71462;50.650;6.888;2023-11-21T14:57:06;30.75;;;10.88;;
81960;SDS011;71462;50.650;6.888;2023-11-21T14:59:42;26.50;;;10.40;;
81960;SDS011;71462;50.650;6.888;2023-11-21T15:02:13;31.75;;;11.75;;